Time;durP1;ratioP1;P1;durP2;ratioP2;P2;SDS_P1;SDS_P2;PMS_P1;PMS_P2;Temp;Humidity;BMP_temperature;BMP_pressure;BME280_temperature;BME280_humidity;BME280_pressure;Samples;Min_cycle;Max_cycle;Signal;HPM_P1;HPM_P2
2024/01/10 00:01:49;;;;;;;56.77;17.77;;;;;;;;;;4956244;28;20046;-78
2024/01/10 00:04:16;;;;;;;55.93;17.87;;;;;;;;;;4956218;28;20062;-78
2024/01/10 00:06:45;;;;;;;54.17;18.77;;;;;;;;;;4963022;28;20039;-76
2024/01/10 00:09:11;;;;;;;52.20;18.33;;;;;;;;;;4979740;28;20035;-76
2024/01/10 00:11:37;;;;;;;48.23;19.97;;;;;;;;;;4980240;28;20034;-76
2024/01/10 00:14:03;;;;;;;54.50;17.37;;;;;;;;;;4961955;28;20035;-76
2024/01/10 00:16:30;;;;;;;57.30;19.50;;;;;;;;;;4944855;28;20115;-77
2024/01/10 00:18:56;;;;;;;46.87;18.23;;;;;;;;;;4940928;28;20039;-76
2024/01/10 00:21:22;;;;;;;50.67;17.87;;;;;;;;;;4958733;28;20046;-76
2024/01/10 00:23:49;;;;;;;48.13;17.97;;;;;;;;;;4953755;28;20417;-76
2024/01/10 00:26:16;;;;;;;48.80;17.80;;;;;;;;;;4955437;28;20030;-76
2024/01/10 00:28:44;;;;;;;61.97;19.83;;;;;;;;;;4954246;28;20097;-78
2024/01/10 00:31:12;;;;;;;53.40;18.63;;;;;;;;;;4954595;28;20276;-77
2024/01/10 00:33:38;;;;;;;52.97;16.87;;;;;;;;;;4955270;28;20045;-78
2024/01/10 00:36:06;;;;;;;51.17;18.30;;;;;;;;;;4968994;28;20027;-75
2024/01/10 00:38:33;;;;;;;55.83;17.93;;;;;;;;;;4950083;28;20030;-77
2024/01/10 00:40:58;;;;;;;51.93;17.90;;;;;;;;;;4936785;28;20043;-76
2024/01/10 00:43:24;;;;;;;54.63;19.37;;;;;;;;;;4950785;28;20053;-77
2024/01/10 00:45:50;;;;;;;54.50;17.93;;;;;;;;;;4934873;28;20058;-76
2024/01/10 00:48:19;;;;;;;53.17;18.80;;;;;;;;;;4965768;28;20034;-76
2024/01/10 00:50:45;;;;;;;54.28;17.52;;;;;;;;;;4949891;28;20394;-77
2024/01/10 00:53:11;;;;;;;54.57;18.03;;;;;;;;;;4965882;28;20050;-77
2024/01/10 00:55:36;;;;;;;56.27;18.50;;;;;;;;;;4965880;28;20069;-76
2024/01/10 00:58:02;;;;;;;43.83;17.10;;;;;;;;;;4982781;28;20526;-77
2024/01/10 01:00:27;;;;;;;48.93;17.37;;;;;;;;;;4965751;28;20045;-77
2024/01/10 01:02:53;;;;;;;43.70;18.33;;;;;;;;;;4981980;28;20030;-76
2024/01/10 01:05:19;;;;;;;69.30;19.33;;;;;;;;;;4965300;28;20034;-77
2024/01/10 01:07:46;;;;;;;54.80;19.20;;;;;;;;;;4965503;28;20027;-77
2024/01/10 01:10:11;;;;;;;58.80;18.87;;;;;;;;;;4965346;28;20390;-77
2024/01/10 01:12:39;;;;;;;51.80;18.80;;;;;;;;;;4965574;28;20035;-77
2024/01/10 01:15:05;;;;;;;51.93;17.30;;;;;;;;;;4982704;28;20046;-77
2024/01/10 01:17:31;;;;;;;50.37;17.47;;;;;;;;;;4967998;28;20035;-76
2024/01/10 01:20:00;;;;;;;62.30;18.63;;;;;;;;;;4951573;28;20043;-75
2024/01/10 01:22:27;;;;;;;49.40;17.83;;;;;;;;;;4954941;28;20060;-76
2024/01/10 01:24:56;;;;;;;57.93;19.17;;;;;;;;;;4959326;28;20162;-76
2024/01/10 01:27:23;;;;;;;54.33;18.23;;;;;;;;;;4994054;28;20031;-78
2024/01/10 01:29:49;;;;;;;65.63;20.33;;;;;;;;;;4989166;28;20027;-77
2024/01/10 01:32:16;;;;;;;55.13;18.37;;;;;;;;;;4954950;28;20482;-77
2024/01/10 01:34:42;;;;;;;52.37;18.43;;;;;;;;;;4952141;28;20129;-77
2024/01/10 01:37:09;;;;;;;56.83;18.07;;;;;;;;;;4983899;28;20039;-76
2024/01/10 01:39:39;;;;;;;52.43;18.07;;;;;;;;;;4985574;28;20122;-77
2024/01/10 01:42:05;;;;;;;54.80;18.63;;;;;;;;;;4966752;28;20039;-77
2024/01/10 01:44:31;;;;;;;60.57;19.80;;;;;;;;;;4983660;28;20536;-78
2024/01/10 01:46:57;;;;;;;58.00;18.33;;;;;;;;;;4966975;28;20031;-77
2024/01/10 01:49:24;;;;;;;53.27;19.53;;;;;;;;;;4973954;28;20504;-77
2024/01/10 01:51:50;;;;;;;49.77;19.30;;;;;;;;;;4961467;28;20038;-77
2024/01/10 01:54:15;;;;;;;57.57;19.13;;;;;;;;;;4994338;28;20026;-78
2024/01/10 01:56:43;;;;;;;56.30;18.40;;;;;;;;;;4995696;28;20027;-78
2024/01/10 01:59:10;;;;;;;52.63;18.87;;;;;;;;;;4996488;28;20046;-76
2024/01/10 02:01:35;;;;;;;54.90;19.77;;;;;;;;;;4980968;28;20042;-75
2024/01/10 02:04:02;;;;;;;53.70;17.60;;;;;;;;;;4981071;28;20090;-76
2024/01/10 02:06:30;;;;;;;61.63;20.30;;;;;;;;;;4981389;28;20027;-76
2024/01/10 02:08:57;;;;;;;51.67;17.77;;;;;;;;;;4997539;28;20057;-76
2024/01/10 02:11:23;;;;;;;52.17;18.57;;;;;;;;;;4980879;28;20031;-76
2024/01/10 02:13:53;;;;;;;52.08;18.50;;;;;;;;;;4980839;28;20071;-77
2024/01/10 02:16:22;;;;;;;39.05;14.68;;;;;;;;;;4997256;28;20041;-77
2024/01/10 02:18:49;;;;;;;59.33;18.70;;;;;;;;;;4980636;28;20038;-77
2024/01/10 02:21:15;;;;;;;60.10;19.50;;;;;;;;;;4997401;28;20034;-77
2024/01/10 02:23:41;;;;;;;53.37;17.90;;;;;;;;;;4996099;28;20046;-77
2024/01/10 02:26:07;;;;;;;54.57;20.17;;;;;;;;;;4961998;28;20039;-78
2024/01/10 02:28:33;;;;;;;54.53;18.87;;;;;;;;;;4973148;28;20027;-75
2024/01/10 02:31:00;;;;;;;54.17;18.67;;;;;;;;;;4969133;28;20054;-77
2024/01/10 02:33:26;;;;;;;53.47;19.80;;;;;;;;;;4987114;28;20038;-76
2024/01/10 02:35:52;;;;;;;49.13;17.77;;;;;;;;;;4971372;28;20494;-77
2024/01/10 02:38:21;;;;;;;61.80;18.33;;;;;;;;;;4987063;28;20039;-76
2024/01/10 02:40:46;;;;;;;60.70;21.00;;;;;;;;;;4976783;28;20035;-77
2024/01/10 02:43:12;;;;;;;53.97;17.67;;;;;;;;;;4960547;28;20046;-75
2024/01/10 02:45:39;;;;;;;59.53;18.90;;;;;;;;;;4972556;28;20035;-77
2024/01/10 02:48:04;;;;;;;56.57;18.57;;;;;;;;;;4993387;28;20035;-76
2024/01/10 02:50:30;;;;;;;53.27;18.90;;;;;;;;;;4961609;28;20042;-77
2024/01/10 02:52:56;;;;;;;48.27;18.10;;;;;;;;;;4992611;28;20046;-77
2024/01/10 02:55:23;;;;;;;62.03;19.53;;;;;;;;;;4991594;28;20087;-74
2024/01/10 02:57:48;;;;;;;52.73;17.80;;;;;;;;;;4992188;28;20023;-76
2024/01/10 03:00:14;;;;;;;56.93;18.17;;;;;;;;;;4988138;28;20537;-77
2024/01/10 03:02:40;;;;;;;52.47;19.23;;;;;;;;;;4966165;28;20514;-76
2024/01/10 03:05:05;;;;;;;55.63;19.37;;;;;;;;;;4977045;28;20054;-77
2024/01/10 03:07:32;;;;;;;60.50;19.80;;;;;;;;;;4977017;28;20019;-76
2024/01/10 03:09:58;;;;;;;53.10;18.03;;;;;;;;;;4992458;28;20050;-75
2024/01/10 03:12:23;;;;;;;53.10;20.23;;;;;;;;;;4976954;28;20031;-77
2024/01/10 03:14:50;;;;;;;51.40;18.87;;;;;;;;;;4991778;28;20039;-76
2024/01/10 03:17:16;;;;;;;52.63;19.03;;;;;;;;;;4991417;28;20098;-76
2024/01/10 03:19:45;;;;;;;57.13;19.83;;;;;;;;;;4952499;28;20034;-76
2024/01/10 03:22:12;;;;;;;62.97;18.97;;;;;;;;;;4964551;28;20492;-75
2024/01/10 03:24:37;;;;;;;53.97;17.70;;;;;;;;;;4979674;28;20066;-77
2024/01/10 03:27:04;;;;;;;51.47;18.43;;;;;;;;;;4963106;28;20085;-77
2024/01/10 03:29:29;;;;;;;61.83;19.00;;;;;;;;;;4979450;28;20042;-77
2024/01/10 03:31:55;;;;;;;52.70;18.60;;;;;;;;;;4965335;28;20031;-77
2024/01/10 03:34:21;;;;;;;56.77;18.83;;;;;;;;;;4983423;28;20030;-77
2024/01/10 03:36:48;;;;;;;57.80;19.10;;;;;;;;;;4972194;28;20038;-76
2024/01/10 03:39:14;;;;;;;54.73;18.53;;;;;;;;;;4991538;28;20035;-77
2024/01/10 03:41:41;;;;;;;58.43;18.27;;;;;;;;;;4976641;28;20031;-77
2024/01/10 03:44:07;;;;;;;63.07;20.13;;;;;;;;;;4975611;28;20044;-76
2024/01/10 03:46:33;;;;;;;57.27;17.87;;;;;;;;;;4991060;28;20043;-77
2024/01/10 03:48:59;;;;;;;54.50;18.23;;;;;;;;;;4955882;28;20121;-78
2024/01/10 03:51:25;;;;;;;56.03;18.40;;;;;;;;;;4953129;28;20106;-77
2024/01/10 03:53:54;;;;;;;54.50;18.93;;;;;;;;;;4952565;28;20401;-76
2024/01/10 03:56:21;;;;;;;55.67;18.67;;;;;;;;;;4983905;28;20035;-77
2024/01/10 03:58:48;;;;;;;56.23;18.27;;;;;;;;;;4984733;28;20078;-77
2024/01/10 04:01:14;;;;;;;61.67;19.57;;;;;;;;;;4968173;28;20478;-76
2024/01/10 04:03:44;;;;;;;54.97;19.97;;;;;;;;;;4968675;28;20038;-77
2024/01/10 04:06:10;;;;;;;51.03;18.03;;;;;;;;;;4951859;28;20037;-77
2024/01/10 04:08:35;;;;;;;58.13;18.80;;;;;;;;;;4951649;28;20062;-78
2024/01/10 04:11:03;;;;;;;53.67;19.40;;;;;;;;;;4966828;28;20099;-76
2024/01/10 04:13:28;;;;;;;60.70;20.27;;;;;;;;;;4951708;28;20448;-77
2024/01/10 04:15:54;;;;;;;54.60;19.80;;;;;;;;;;4984416;28;20042;-77
2024/01/10 04:18:21;;;;;;;53.37;18.83;;;;;;;;;;4952851;28;20035;-77
2024/01/10 04:20:48;;;;;;;61.73;19.63;;;;;;;;;;4965742;28;20106;-78
2024/01/10 04:23:14;;;;;;;59.97;19.25;;;;;;;;;;4983685;28;20039;-78
2024/01/10 04:25:40;;;;;;;54.03;18.73;;;;;;;;;;4987763;28;20038;-78
2024/01/10 04:28:06;;;;;;;59.33;18.73;;;;;;;;;;4983945;28;20027;-77
2024/01/10 04:30:33;;;;;;;54.50;19.07;;;;;;;;;;4981982;28;20118;-77
2024/01/10 04:32:59;;;;;;;59.40;20.67;;;;;;;;;;4965099;28;20058;-77
2024/01/10 04:35:25;;;;;;;53.30;19.00;;;;;;;;;;4950711;28;20042;-77
2024/01/10 04:37:51;;;;;;;51.63;17.47;;;;;;;;;;4965881;28;20041;-77
2024/01/10 04:40:18;;;;;;;61.05;20.05;;;;;;;;;;4981921;28;20026;-77
2024/01/10 04:42:44;;;;;;;60.67;20.47;;;;;;;;;;4981525;28;20326;-78
2024/01/10 04:45:10;;;;;;;54.87;18.73;;;;;;;;;;4955477;28;20039;-77
2024/01/10 04:47:35;;;;;;;60.37;18.40;;;;;;;;;;4996646;28;20011;-78
2024/01/10 04:50:02;;;;;;;60.33;19.80;;;;;;;;;;4978003;28;20034;-77
2024/01/10 04:52:28;;;;;;;52.40;19.23;;;;;;;;;;4975694;28;20133;-77
2024/01/10 04:54:54;;;;;;;57.97;19.60;;;;;;;;;;4970046;28;20043;-76
2024/01/10 04:57:19;;;;;;;58.33;20.53;;;;;;;;;;4984626;28;20035;-77
2024/01/10 04:59:45;;;;;;;61.33;19.37;;;;;;;;;;4967847;28;20073;-77
2024/01/10 05:02:11;;;;;;;54.50;18.37;;;;;;;;;;4950578;28;20042;-77
2024/01/10 05:04:36;;;;;;;56.40;19.47;;;;;;;;;;4981794;28;20050;-77
2024/01/10 05:07:02;;;;;;;63.33;20.00;;;;;;;;;;4966367;28;20031;-77
2024/01/10 05:09:28;;;;;;;52.83;19.17;;;;;;;;;;4966062;28;20037;-77
2024/01/10 05:11:54;;;;;;;56.50;19.43;;;;;;;;;;4978092;28;20022;-77
2024/01/10 05:14:20;;;;;;;64.57;19.13;;;;;;;;;;4977356;28;20387;-77
2024/01/10 05:16:47;;;;;;;55.40;19.17;;;;;;;;;;4945062;28;20046;-78
2024/01/10 05:19:13;;;;;;;58.33;19.37;;;;;;;;;;4961345;28;20034;-77
2024/01/10 05:21:39;;;;;;;61.17;18.97;;;;;;;;;;4962033;28;20134;-77
2024/01/10 05:24:05;;;;;;;47.53;18.37;;;;;;;;;;4961484;28;20043;-77
2024/01/10 05:26:32;;;;;;;54.93;18.83;;;;;;;;;;4961157;28;20035;-77
2024/01/10 05:28:57;;;;;;;62.70;18.80;;;;;;;;;;4961591;28;20082;-78
2024/01/10 05:31:23;;;;;;;57.33;18.27;;;;;;;;;;4963176;28;20023;-77
2024/01/10 05:33:49;;;;;;;52.13;19.07;;;;;;;;;;4960753;28;20034;-77
2024/01/10 05:36:15;;;;;;;53.17;17.87;;;;;;;;;;4977580;28;20039;-77
2024/01/10 05:38:41;;;;;;;55.30;19.57;;;;;;;;;;4979388;28;20035;-77
2024/01/10 05:41:07;;;;;;;57.20;17.67;;;;;;;;;;4979888;28;20490;-78
2024/01/10 05:43:33;;;;;;;65.87;18.90;;;;;;;;;;4962810;28;20043;-77
2024/01/10 05:45:59;;;;;;;57.33;18.07;;;;;;;;;;4978076;28;20049;-77
2024/01/10 05:48:25;;;;;;;53.87;18.03;;;;;;;;;;4978509;28;20022;-78
2024/01/10 05:50:50;;;;;;;58.43;18.43;;;;;;;;;;4979688;28;20030;-77
2024/01/10 05:53:16;;;;;;;49.87;17.57;;;;;;;;;;4978048;28;20205;-77
2024/01/10 05:55:45;;;;;;;59.90;19.30;;;;;;;;;;4976937;28;20023;-76
2024/01/10 05:58:11;;;;;;;57.30;17.27;;;;;;;;;;4978200;28;20081;-77
2024/01/10 06:00:37;;;;;;;58.67;20.63;;;;;;;;;;4963026;28;20042;-77
2024/01/10 06:03:02;;;;;;;63.33;20.77;;;;;;;;;;4980154;28;20034;-76
2024/01/10 06:05:28;;;;;;;59.63;19.93;;;;;;;;;;4980251;28;20035;-77
2024/01/10 06:07:53;;;;;;;63.13;18.47;;;;;;;;;;4982084;28;20074;-78
2024/01/10 06:10:19;;;;;;;55.97;18.77;;;;;;;;;;4982596;28;20042;-78
2024/01/10 06:12:45;;;;;;;55.60;18.83;;;;;;;;;;4951055;28;20027;-77
2024/01/10 06:15:10;;;;;;;53.33;17.70;;;;;;;;;;4963282;28;20034;-77
2024/01/10 06:17:37;;;;;;;60.67;19.70;;;;;;;;;;4967165;28;20047;-77
2024/01/10 06:20:04;;;;;;;58.43;19.47;;;;;;;;;;4982029;28;20089;-78
2024/01/10 06:22:30;;;;;;;51.47;17.33;;;;;;;;;;4962132;28;20047;-78
2024/01/10 06:24:55;;;;;;;70.93;24.17;;;;;;;;;;4963325;28;20050;-78
2024/01/10 06:27:21;;;;;;;59.80;19.83;;;;;;;;;;4966680;28;20035;-79
2024/01/10 06:29:47;;;;;;;57.57;18.97;;;;;;;;;;4982108;28;20495;-77
2024/01/10 06:32:14;;;;;;;62.77;20.07;;;;;;;;;;4964041;28;20166;-77
2024/01/10 06:34:40;;;;;;;65.57;22.13;;;;;;;;;;4984411;28;20031;-78
2024/01/10 06:37:07;;;;;;;59.43;18.90;;;;;;;;;;4970133;28;20037;-78
2024/01/10 06:39:33;;;;;;;47.77;18.93;;;;;;;;;;4947903;28;20030;-77
2024/01/10 06:41:59;;;;;;;59.43;20.13;;;;;;;;;;4978580;28;20126;-77
2024/01/10 06:44:27;;;;;;;56.60;19.13;;;;;;;;;;4978013;28;20066;-78
2024/01/10 06:46:54;;;;;;;61.78;20.25;;;;;;;;;;4979808;28;20047;-77
2024/01/10 06:49:20;;;;;;;55.37;18.53;;;;;;;;;;4977156;28;20030;-77
2024/01/10 06:51:46;;;;;;;59.57;20.33;;;;;;;;;;4978023;28;20086;-78
2024/01/10 06:54:13;;;;;;;55.73;18.90;;;;;;;;;;4960916;28;20066;-78
2024/01/10 06:56:39;;;;;;;49.63;18.83;;;;;;;;;;4976102;28;20042;-79
2024/01/10 06:59:04;;;;;;;51.13;18.77;;;;;;;;;;4976153;28;20119;-77
2024/01/10 07:01:30;;;;;;;53.80;19.40;;;;;;;;;;4959481;28;20038;-78
2024/01/10 07:03:56;;;;;;;53.83;18.73;;;;;;;;;;4976656;28;20042;-78
2024/01/10 07:06:22;;;;;;;50.10;18.60;;;;;;;;;;4959499;28;20046;-77
2024/01/10 07:08:49;;;;;;;56.77;19.90;;;;;;;;;;4961259;28;20077;-78
2024/01/10 07:11:15;;;;;;;53.17;19.30;;;;;;;;;;4963671;28;20035;-78
2024/01/10 07:13:41;;;;;;;60.00;19.47;;;;;;;;;;4964406;28;20046;-78
2024/01/10 07:16:07;;;;;;;58.23;19.77;;;;;;;;;;4979728;28;20050;-77
2024/01/10 07:18:33;;;;;;;54.10;19.90;;;;;;;;;;4964333;28;20125;-78
2024/01/10 07:20:59;;;;;;;53.37;18.57;;;;;;;;;;4980167;28;20132;-78
2024/01/10 07:23:25;;;;;;;62.50;18.63;;;;;;;;;;4963840;28;20045;-78
2024/01/10 07:25:51;;;;;;;56.33;20.67;;;;;;;;;;4948673;28;20039;-78
2024/01/10 07:28:17;;;;;;;61.10;19.27;;;;;;;;;;4980999;23;20049;-78
2024/01/10 07:30:47;;;;;;;52.37;19.53;;;;;;;;;;4964458;28;20022;-78
2024/01/10 07:33:13;;;;;;;55.83;18.03;;;;;;;;;;4961654;28;20752;-78
2024/01/10 07:35:39;;;;;;;59.40;20.03;;;;;;;;;;4944519;28;20111;-79
2024/01/10 07:38:08;;;;;;;52.87;19.27;;;;;;;;;;4961410;28;20433;-77
2024/01/10 07:40:37;;;;;;;59.47;19.80;;;;;;;;;;4979354;28;20395;-76
2024/01/10 07:43:04;;;;;;;53.33;18.03;;;;;;;;;;4929788;28;20046;-79
2024/01/10 07:45:31;;;;;;;52.95;19.27;;;;;;;;;;4978732;28;20086;-78
2024/01/10 07:47:56;;;;;;;53.57;19.10;;;;;;;;;;4961809;28;20066;-78
2024/01/10 07:50:27;;;;;;;59.23;19.90;;;;;;;;;;4980876;28;20034;-78
2024/01/10 07:52:52;;;;;;;51.90;17.93;;;;;;;;;;4964371;28;20516;-78
2024/01/10 07:55:18;;;;;;;55.30;19.07;;;;;;;;;;4965207;28;20111;-78
2024/01/10 07:57:46;;;;;;;47.47;18.60;;;;;;;;;;4987397;28;20035;-78
2024/01/10 08:00:13;;;;;;;61.33;18.90;;;;;;;;;;4972678;28;20069;-78
2024/01/10 08:02:39;;;;;;;55.50;18.63;;;;;;;;;;4981053;28;20019;-79
2024/01/10 08:05:14;;;;;;;52.70;18.83;;;;;;;;;;4982927;28;20042;-78
2024/01/10 08:07:39;;;;;;;55.73;19.93;;;;;;;;;;4984516;28;20030;-78
2024/01/10 08:10:09;;;;;;;60.83;20.33;;;;;;;;;;5000849;28;20059;-78
2024/01/10 08:12:35;;;;;;;55.17;19.50;;;;;;;;;;5000853;28;20029;-77
2024/01/10 08:15:22;;;;;;;61.57;19.07;;;;;;;;;;4967371;28;20073;-77
2024/01/10 08:17:47;;;;;;;62.13;19.53;;;;;;;;;;4965104;28;20035;-77
2024/01/10 08:20:19;;;;;;;60.23;21.17;;;;;;;;;;4986526;28;20082;-78
2024/01/10 08:22:45;;;;;;;59.63;21.70;;;;;;;;;;4964131;28;20035;-77
2024/01/10 08:25:15;;;;;;;60.93;20.20;;;;;;;;;;4980460;28;20545;-78
2024/01/10 08:27:59;;;;;;;59.43;17.63;;;;;;;;;;4948527;28;20359;-78
2024/01/10 08:30:25;;;;;;;51.70;17.23;;;;;;;;;;4981793;28;20037;-78
2024/01/10 08:32:50;;;;;;;61.47;18.10;;;;;;;;;;4966766;28;20054;-77
2024/01/10 08:35:16;;;;;;;47.73;17.03;;;;;;;;;;4984729;28;20037;-78
2024/01/10 08:37:44;;;;;;;55.93;18.80;;;;;;;;;;4966922;28;20093;-78
2024/01/10 08:40:11;;;;;;;60.50;19.20;;;;;;;;;;4970153;28;20030;-78
2024/01/10 08:42:40;;;;;;;53.03;18.13;;;;;;;;;;4957441;28;20090;-77
2024/01/10 08:45:09;;;;;;;69.20;18.67;;;;;;;;;;4978694;28;20288;-78
2024/01/10 08:47:35;;;;;;;53.45;18.25;;;;;;;;;;4977747;28;20046;-77
2024/01/10 08:50:01;;;;;;;49.03;18.33;;;;;;;;;;4997481;28;20099;-78
2024/01/10 08:52:27;;;;;;;55.80;19.23;;;;;;;;;;4994284;28;20042;-77
2024/01/10 08:54:52;;;;;;;48.27;16.77;;;;;;;;;;4950069;28;20038;-78
2024/01/10 08:57:18;;;;;;;64.57;18.67;;;;;;;;;;4966151;28;20037;-77
2024/01/10 08:59:43;;;;;;;57.73;18.03;;;;;;;;;;4982589;28;20034;-78
2024/01/10 09:02:09;;;;;;;58.87;17.63;;;;;;;;;;4960602;28;20387;-77
2024/01/10 09:04:34;;;;;;;52.67;17.63;;;;;;;;;;4942033;28;20039;-77
2024/01/10 09:07:01;;;;;;;56.07;18.23;;;;;;;;;;4975899;28;20042;-78
2024/01/10 09:09:27;;;;;;;52.40;18.27;;;;;;;;;;4958805;28;20401;-78
2024/01/10 09:11:53;;;;;;;51.37;17.57;;;;;;;;;;4958728;28;20406;-78
2024/01/10 09:14:21;;;;;;;53.70;18.33;;;;;;;;;;4958722;28;20041;-78
2024/01/10 09:16:47;;;;;;;53.05;17.83;;;;;;;;;;4958546;28;20035;-78
2024/01/10 09:19:14;;;;;;;52.83;18.13;;;;;;;;;;4942316;28;20046;-78
2024/01/10 09:21:41;;;;;;;61.10;18.60;;;;;;;;;;4960784;28;20034;-78
2024/01/10 09:24:10;;;;;;;52.47;17.80;;;;;;;;;;4942184;28;20038;-78
2024/01/10 09:26:36;;;;;;;52.67;19.27;;;;;;;;;;4958088;28;20038;-78
2024/01/10 09:29:02;;;;;;;69.63;20.43;;;;;;;;;;4975772;28;20035;-77
2024/01/10 09:31:27;;;;;;;51.33;17.90;;;;;;;;;;4941902;28;20055;-78
2024/01/10 09:33:54;;;;;;;53.83;18.77;;;;;;;;;;4926788;28;20097;-78
2024/01/10 09:36:19;;;;;;;62.50;20.90;;;;;;;;;;4975704;28;20034;-78
2024/01/10 09:38:45;;;;;;;59.30;18.63;;;;;;;;;;4976914;28;20481;-78
2024/01/10 09:41:13;;;;;;;53.97;20.33;;;;;;;;;;4958817;28;20034;-77
2024/01/10 09:43:40;;;;;;;67.27;22.63;;;;;;;;;;4942822;28;20379;-77
2024/01/10 09:46:07;;;;;;;52.92;20.00;;;;;;;;;;4958146;28;20093;-77
2024/01/10 09:48:32;;;;;;;58.67;19.17;;;;;;;;;;4958249;28;20039;-78
2024/01/10 09:51:01;;;;;;;56.40;19.05;;;;;;;;;;4941936;28;20042;-78
2024/01/10 09:53:27;;;;;;;55.63;20.33;;;;;;;;;;4957359;28;20047;-78
2024/01/10 09:55:56;;;;;;;54.47;18.53;;;;;;;;;;4945030;28;20043;-78
2024/01/10 09:58:25;;;;;;;50.53;18.53;;;;;;;;;;4958760;28;20483;-78
2024/01/10 10:00:51;;;;;;;66.33;20.57;;;;;;;;;;4958239;28;20046;-79
2024/01/10 10:03:18;;;;;;;54.90;18.87;;;;;;;;;;4956975;28;20038;-77
2024/01/10 10:05:52;;;;;;;63.00;19.97;;;;;;;;;;4973105;28;20490;-77
2024/01/10 10:08:25;;;;;;;66.97;21.03;;;;;;;;;;4941281;28;20035;-78
2024/01/10 10:10:51;;;;;;;56.37;21.30;;;;;;;;;;4973930;28;20035;-78
2024/01/10 10:13:30;;;;;;;56.00;19.13;;;;;;;;;;4958412;28;20490;-79
2024/01/10 10:15:59;;;;;;;52.07;19.63;;;;;;;;;;4973943;28;20034;-77
2024/01/10 10:18:26;;;;;;;62.77;20.03;;;;;;;;;;4973391;28;20106;-78
2024/01/10 10:21:11;;;;;;;59.23;20.03;;;;;;;;;;4957094;28;20113;-77
2024/01/10 10:23:37;;;;;;;61.60;21.40;;;;;;;;;;4957008;28;20027;-78
2024/01/10 10:26:18;;;;;;;62.93;22.53;;;;;;;;;;4975507;28;20486;-78
2024/01/10 10:28:44;;;;;;;57.17;20.67;;;;;;;;;;4974246;28;20039;-77
2024/01/10 10:31:09;;;;;;;57.83;20.17;;;;;;;;;;4973675;28;20042;-76
2024/01/10 10:33:36;;;;;;;58.97;21.50;;;;;;;;;;4958437;28;20154;-78
2024/01/10 10:36:02;;;;;;;50.43;18.93;;;;;;;;;;4974998;28;20027;-78
2024/01/10 10:38:28;;;;;;;60.37;20.20;;;;;;;;;;4973909;28;20087;-78
2024/01/10 10:40:55;;;;;;;62.33;20.53;;;;;;;;;;4958069;28;20037;-77
2024/01/10 10:43:21;;;;;;;72.27;20.90;;;;;;;;;;4975706;28;20500;-78
2024/01/10 10:45:48;;;;;;;54.93;20.30;;;;;;;;;;4978924;28;20055;-78
2024/01/10 10:48:20;;;;;;;64.10;20.13;;;;;;;;;;4977872;28;20558;-77
2024/01/10 10:51:08;;;;;;;57.33;20.77;;;;;;;;;;4977552;28;20031;-76
2024/01/10 10:53:45;;;;;;;58.80;19.43;;;;;;;;;;4961704;28;20031;-78
2024/01/10 10:56:14;;;;;;;60.07;20.77;;;;;;;;;;4964258;28;20051;-78
2024/01/10 10:58:46;;;;;;;58.67;21.77;;;;;;;;;;4977196;28;20074;-79
2024/01/10 11:01:44;;;;;;;64.07;22.63;;;;;;;;;;4975496;28;20033;-79
2024/01/10 11:04:19;;;;;;;59.37;21.40;;;;;;;;;;4969196;28;20043;-78
2024/01/10 11:06:53;;;;;;;65.17;20.83;;;;;;;;;;4980145;28;20031;-78
2024/01/10 11:13:07;;;;;;;52.50;19.23;;;;;;;;;;4984045;28;20035;-78
2024/01/10 11:16:16;;;;;;;52.57;19.20;;;;;;;;;;4961380;28;20028;-78
2024/01/10 11:19:19;;;;;;;57.27;19.73;;;;;;;;;;4948056;29;20103;-78
2024/01/10 11:22:08;;;;;;;63.03;21.80;;;;;;;;;;4934421;29;20122;-78
2024/01/10 11:25:22;;;;;;;53.43;18.73;;;;;;;;;;4861806;29;20057;-78
2024/01/10 11:28:22;;;;;;;55.87;20.33;;;;;;;;;;4861027;29;20045;-78
2024/01/10 11:30:53;;;;;;;57.57;21.27;;;;;;;;;;4848980;29;20053;-79
2024/01/10 11:33:42;;;;;;;54.43;20.17;;;;;;;;;;4866087;29;20053;-78
2024/01/10 11:36:28;;;;;;;60.13;20.33;;;;;;;;;;4834089;29;20072;-78
2024/01/10 11:39:12;;;;;;;57.87;20.43;;;;;;;;;;4862079;29;20097;-78
2024/01/10 11:41:49;;;;;;;52.73;20.37;;;;;;;;;;4847600;29;20050;-79
2024/01/10 11:44:38;;;;;;;62.20;21.25;;;;;;;;;;4831216;29;20046;-79
2024/01/10 11:47:19;;;;;;;39.37;14.33;;;;;;;;;;4894518;29;20032;-77
2024/01/10 11:49:59;;;;;;;56.33;20.50;;;;;;;;;;4902879;29;20043;-78
2024/01/10 11:52:34;;;;;;;62.90;21.43;;;;;;;;;;4902964;29;20029;-79
2024/01/10 11:55:08;;;;;;;60.63;20.87;;;;;;;;;;4902592;29;20055;-79
2024/01/10 11:57:38;;;;;;;52.03;20.40;;;;;;;;;;4899958;29;20055;-78
2024/01/10 12:00:19;;;;;;;63.57;22.20;;;;;;;;;;4903337;29;20040;-79
2024/01/10 12:06:05;;;;;;;49.93;19.03;;;;;;;;;;4974961;28;20065;-79
2024/01/10 12:08:39;;;;;;;59.33;20.37;;;;;;;;;;4974777;28;20265;-79
2024/01/10 12:11:35;;;;;;;67.57;21.33;;;;;;;;;;4975327;28;20039;-79
2024/01/10 12:14:09;;;;;;;60.43;21.43;;;;;;;;;;4960464;28;20069;-79
2024/01/10 12:16:38;;;;;;;58.10;20.80;;;;;;;;;;4976546;28;20038;-78
2024/01/10 12:19:19;;;;;;;63.90;21.03;;;;;;;;;;4974940;28;20090;-78
2024/01/10 12:21:50;;;;;;;;;;;;;;;;;;4961228;28;20051;-80
2024/01/10 12:24:21;;;;;;;53.90;18.80;;;;;;;;;;4976429;28;19920;-80
2024/01/10 12:26:56;;;;;;;61.63;21.70;;;;;;;;;;4975460;28;20067;-78
2024/01/10 12:29:42;;;;;;;51.43;19.33;;;;;;;;;;4955576;28;20089;-79
2024/01/10 12:32:10;;;;;;;54.87;19.23;;;;;;;;;;4943783;28;20517;-79
2024/01/10 12:35:21;;;;;;;52.60;18.27;;;;;;;;;;4960600;28;20047;-79
2024/01/10 12:38:13;;;;;;;50.93;18.40;;;;;;;;;;4975140;28;20102;-79
2024/01/10 12:41:00;;;;;;;52.70;20.63;;;;;;;;;;4975170;28;20046;-78
2024/01/10 12:43:30;;;;;;;57.80;20.13;;;;;;;;;;4941039;28;20102;-79
2024/01/10 12:46:11;;;;;;;54.40;19.97;;;;;;;;;;4949823;28;20051;-78
2024/01/10 12:48:45;;;;;;;51.70;20.30;;;;;;;;;;4973376;28;20066;-78
2024/01/10 12:51:16;;;;;;;51.10;19.30;;;;;;;;;;4960532;28;20031;-79
2024/01/10 12:53:48;;;;;;;52.70;18.87;;;;;;;;;;4975072;28;20054;-78
2024/01/10 12:56:43;;;;;;;49.55;19.70;;;;;;;;;;4975899;28;20097;-79
2024/01/10 12:59:12;;;;;;;50.63;20.17;;;;;;;;;;4975978;28;20483;-78
2024/01/10 13:05:19;;;;;;;46.15;17.95;;;;;;;;;;5050987;23;20046;-78
2024/01/10 13:07:45;;;;;;;52.95;20.33;;;;;;;;;;4958158;28;20035;-78
2024/01/10 13:10:12;;;;;;;52.13;21.10;;;;;;;;;;4959353;28;20561;-77
2024/01/10 13:12:37;;;;;;;51.10;19.92;;;;;;;;;;4977028;28;20118;-78
2024/01/10 13:15:03;;;;;;;47.60;19.38;;;;;;;;;;4958428;28;20463;-77
2024/01/10 13:17:28;;;;;;;54.30;20.92;;;;;;;;;;4976330;28;20042;-78
2024/01/10 13:19:55;;;;;;;56.75;20.08;;;;;;;;;;4959233;28;20494;-78
2024/01/10 13:22:21;;;;;;;60.33;23.77;;;;;;;;;;4959874;28;20105;-78
2024/01/10 13:24:48;;;;;;;54.42;23.67;;;;;;;;;;4959187;28;20042;-77
2024/01/10 13:27:13;;;;;;;57.67;22.08;;;;;;;;;;4959916;28;20034;-79
2024/01/10 13:29:40;;;;;;;58.60;24.60;;;;;;;;;;4943949;28;20108;-78
2024/01/10 13:32:06;;;;;;;48.97;21.33;;;;;;;;;;4976827;28;20486;-78
2024/01/10 13:34:32;;;;;;;55.15;22.50;;;;;;;;;;4972047;28;20082;-78
2024/01/10 13:36:59;;;;;;;51.63;21.10;;;;;;;;;;4943197;28;20038;-78
2024/01/10 13:39:24;;;;;;;49.15;23.27;;;;;;;;;;4968264;28;20023;-79
2024/01/10 13:41:50;;;;;;;52.40;21.60;;;;;;;;;;4962615;28;20023;-78
2024/01/10 13:44:19;;;;;;;48.92;22.73;;;;;;;;;;4975244;28;20042;-78
2024/01/10 13:46:49;;;;;;;50.78;19.88;;;;;;;;;;4945448;28;20106;-78
2024/01/10 13:49:14;;;;;;;;;;;;;;;;;;4963561;28;20027;-77
2024/01/10 13:51:40;;;;;;;48.95;21.58;;;;;;;;;;4987082;28;19964;-79
2024/01/10 13:54:05;;;;;;;50.70;22.75;;;;;;;;;;4991522;28;20481;-78
2024/01/10 13:56:32;;;;;;;50.97;21.45;;;;;;;;;;4964014;28;20026;-78
2024/01/10 13:58:57;;;;;;;60.72;22.55;;;;;;;;;;4943568;28;20045;-79
2024/01/10 14:01:23;;;;;;;50.33;21.35;;;;;;;;;;4958760;28;20026;-78
2024/01/10 14:03:48;;;;;;;51.78;22.40;;;;;;;;;;4983388;28;20030;-80
2024/01/10 14:06:14;;;;;;;49.10;22.20;;;;;;;;;;4984822;28;20034;-79
2024/01/10 14:08:41;;;;;;;55.70;23.23;;;;;;;;;;4994279;28;20050;-79
2024/01/10 14:11:06;;;;;;;52.55;22.13;;;;;;;;;;4959205;28;20047;-78
2024/01/10 14:13:32;;;;;;;58.47;25.52;;;;;;;;;;4942838;28;20088;-79
2024/01/10 14:15:58;;;;;;;55.30;22.65;;;;;;;;;;4987793;28;20030;-79
2024/01/10 14:18:23;;;;;;;53.03;22.85;;;;;;;;;;4959356;28;20019;-79
2024/01/10 14:20:49;;;;;;;57.15;23.98;;;;;;;;;;4988698;28;20066;-79
2024/01/10 14:23:17;;;;;;;55.28;24.27;;;;;;;;;;5000460;28;20014;-79
2024/01/10 14:25:42;;;;;;;54.60;23.23;;;;;;;;;;4931949;29;20035;-79
2024/01/10 14:28:08;;;;;;;63.53;25.00;;;;;;;;;;4910695;29;20093;-80
2024/01/10 14:30:34;;;;;;;63.90;27.63;;;;;;;;;;4926501;28;20133;-79
2024/01/10 14:33:00;;;;;;;60.40;22.98;;;;;;;;;;4960741;28;20030;-78
2024/01/10 14:35:26;;;;;;;52.28;23.58;;;;;;;;;;4958257;28;20110;-79
2024/01/10 14:37:53;;;;;;;52.88;21.40;;;;;;;;;;4942053;28;20511;-79